sensor_id;sensor_type;location;lat;lon;timestamp;P1;durP1;ratioP1;P2;durP2;ratioP2
20004;SDS011;69160;45.498;-73.582;2023-05-19T00:01:08;0.90;;;0.67;;
20004;SDS011;69160;45.498;-73.582;2023-05-19T00:03:53;1.43;;;0.80;;
20004;SDS011;69160;45.498;-73.582;2023-05-19T00:06:31;1.63;;;0.80;;
20004;SDS011;69160;45.498;-73.582;2023-05-19T00:08:58;4.63;;;1.30;;
20004;SDS011;69160;45.498;-73.582;2023-05-19T00:11:32;1.23;;;1.10;;
20004;SDS011;69160;45.498;-73.582;2023-05-19T00:14:00;2.87;;;1.30;;
20004;SDS011;69160;45.498;-73.582;2023-05-19T00:16:28;2.97;;;1.27;;
20004;SDS011;69160;45.498;-73.582;2023-05-19T00:18:56;1.30;;;0.90;;
20004;SDS011;69160;45.498;-73.582;2023-05-19T00:21:26;2.00;;;0.67;;
20004;SDS011;69160;45.498;-73.582;2023-05-19T00:23:53;0.80;;;0.80;;
20004;SDS011;69160;45.498;-73.582;2023-05-19T00:26:20;1.30;;;1.03;;
20004;SDS011;69160;45.498;-73.582;2023-05-19T00:28:48;1.40;;;1.17;;
20004;SDS011;69160;45.498;-73.582;2023-05-19T00:31:14;1.60;;;0.90;;
20004;SDS011;69160;45.498;-73.582;2023-05-19T00:33:41;1.33;;;1.00;;
20004;SDS011;69160;45.498;-73.582;2023-05-19T00:36:07;1.63;;;0.80;;
20004;SDS011;69160;45.498;-73.582;2023-05-19T00:38:34;1.10;;;0.83;;
20004;SDS011;69160;45.498;-73.582;2023-05-19T00:41:02;1.50;;;0.97;;
20004;SDS011;69160;45.498;-73.582;2023-05-19T00:43:29;1.70;;;0.97;;
20004;SDS011;69160;45.498;-73.582;2023-05-19T00:45:56;3.10;;;1.00;;
20004;SDS011;69160;45.498;-73.582;2023-05-19T00:48:23;2.80;;;1.00;;
20004;SDS011;69160;45.498;-73.582;2023-05-19T00:50:50;3.53;;;1.10;;
20004;SDS011;69160;45.498;-73.582;2023-05-19T00:53:19;6.00;;;0.90;;
20004;SDS011;69160;45.498;-73.582;2023-05-19T00:55:46;1.30;;;0.93;;
20004;SDS011;69160;45.498;-73.582;2023-05-19T00:58:12;1.80;;;1.20;;
20004;SDS011;69160;45.498;-73.582;2023-05-19T01:00:39;10.03;;;1.20;;
20004;SDS011;69160;45.498;-73.582;2023-05-19T01:03:06;3.70;;;1.00;;
20004;SDS011;69160;45.498;-73.582;2023-05-19T01:05:39;3.93;;;1.13;;
20004;SDS011;69160;45.498;-73.582;2023-05-19T01:08:06;6.20;;;1.50;;
20004;SDS011;69160;45.498;-73.582;2023-05-19T01:10:33;7.77;;;1.73;;
20004;SDS011;69160;45.498;-73.582;2023-05-19T01:13:00;10.30;;;2.53;;
20004;SDS011;69160;45.498;-73.582;2023-05-19T01:15:28;3.47;;;1.33;;
20004;SDS011;69160;45.498;-73.582;2023-05-19T01:18:04;5.60;;;1.63;;
20004;SDS011;69160;45.498;-73.582;2023-05-19T01:31:25;8.20;;;2.13;;
20004;SDS011;69160;45.498;-73.582;2023-05-19T01:33:52;11.53;;;2.03;;
20004;SDS011;69160;45.498;-73.582;2023-05-19T01:36:19;8.70;;;1.90;;
20004;SDS011;69160;45.498;-73.582;2023-05-19T01:38:50;7.60;;;2.07;;
20004;SDS011;69160;45.498;-73.582;2023-05-19T01:41:19;10.33;;;2.40;;
20004;SDS011;69160;45.498;-73.582;2023-05-19T01:43:47;7.83;;;2.17;;
20004;SDS011;69160;45.498;-73.582;2023-05-19T01:46:14;7.87;;;2.20;;
20004;SDS011;69160;45.498;-73.582;2023-05-19T01:48:41;7.00;;;1.50;;
20004;SDS011;69160;45.498;-73.582;2023-05-19T01:51:09;4.87;;;1.90;;
20004;SDS011;69160;45.498;-73.582;2023-05-19T01:53:35;8.07;;;1.43;;
20004;SDS011;69160;45.498;-73.582;2023-05-19T01:56:02;4.73;;;1.53;;
20004;SDS011;69160;45.498;-73.582;2023-05-19T02:03:59;3.73;;;1.40;;
20004;SDS011;69160;45.498;-73.582;2023-05-19T02:09:22;2.53;;;1.13;;
20004;SDS011;69160;45.498;-73.582;2023-05-19T02:12:02;5.30;;;1.83;;
20004;SDS011;69160;45.498;-73.582;2023-05-19T02:14:44;6.43;;;1.60;;
20004;SDS011;69160;45.498;-73.582;2023-05-19T02:17:17;3.43;;;1.47;;
20004;SDS011;69160;45.498;-73.582;2023-05-19T02:19:44;5.80;;;1.53;;
20004;SDS011;69160;45.498;-73.582;2023-05-19T02:22:11;3.37;;;1.47;;
20004;SDS011;69160;45.498;-73.582;2023-05-19T02:24:37;6.63;;;1.23;;
20004;SDS011;69160;45.498;-73.582;2023-05-19T02:27:03;3.27;;;1.20;;
20004;SDS011;69160;45.498;-73.582;2023-05-19T02:29:30;1.43;;;0.90;;
20004;SDS011;69160;45.498;-73.582;2023-05-19T02:31:57;6.97;;;1.37;;
20004;SDS011;69160;45.498;-73.582;2023-05-19T02:34:24;2.67;;;1.20;;
20004;SDS011;69160;45.498;-73.582;2023-05-19T02:36:51;6.63;;;1.20;;
20004;SDS011;69160;45.498;-73.582;2023-05-19T02:39:17;1.90;;;1.50;;
20004;SDS011;69160;45.498;-73.582;2023-05-19T02:41:43;1.57;;;1.00;;
20004;SDS011;69160;45.498;-73.582;2023-05-19T02:44:09;4.97;;;1.43;;
20004;SDS011;69160;45.498;-73.582;2023-05-19T02:46:35;3.33;;;1.40;;
20004;SDS011;69160;45.498;-73.582;2023-05-19T02:49:01;3.40;;;1.30;;
20004;SDS011;69160;45.498;-73.582;2023-05-19T02:51:27;5.23;;;1.40;;
20004;SDS011;69160;45.498;-73.582;2023-05-19T02:53:54;2.80;;;1.23;;
20004;SDS011;69160;45.498;-73.582;2023-05-19T02:56:20;1.37;;;1.27;;
20004;SDS011;69160;45.498;-73.582;2023-05-19T02:58:46;1.23;;;1.03;;
20004;SDS011;69160;45.498;-73.582;2023-05-19T03:01:12;3.60;;;1.63;;
20004;SDS011;69160;45.498;-73.582;2023-05-19T03:03:38;4.03;;;1.40;;
20004;SDS011;69160;45.498;-73.582;2023-05-19T03:06:04;2.50;;;1.40;;
20004;SDS011;69160;45.498;-73.582;2023-05-19T03:08:33;2.00;;;1.27;;
20004;SDS011;69160;45.498;-73.582;2023-05-19T03:11:00;3.10;;;1.30;;
20004;SDS011;69160;45.498;-73.582;2023-05-19T03:13:26;3.27;;;1.10;;
20004;SDS011;69160;45.498;-73.582;2023-05-19T03:15:53;1.90;;;1.20;;
20004;SDS011;69160;45.498;-73.582;2023-05-19T03:18:21;2.37;;;1.10;;
20004;SDS011;69160;45.498;-73.582;2023-05-19T03:20:48;2.77;;;1.13;;
20004;SDS011;69160;45.498;-73.582;2023-05-19T03:23:15;2.17;;;1.10;;
20004;SDS011;69160;45.498;-73.582;2023-05-19T03:25:41;1.43;;;1.00;;
20004;SDS011;69160;45.498;-73.582;2023-05-19T03:28:07;2.80;;;1.20;;
20004;SDS011;69160;45.498;-73.582;2023-05-19T03:30:34;2.07;;;0.90;;
20004;SDS011;69160;45.498;-73.582;2023-05-19T03:33:00;2.00;;;1.40;;
20004;SDS011;69160;45.498;-73.582;2023-05-19T03:35:27;2.00;;;1.23;;
20004;SDS011;69160;45.498;-73.582;2023-05-19T03:37:53;2.00;;;1.20;;
20004;SDS011;69160;45.498;-73.582;2023-05-19T03:40:19;1.60;;;1.20;;
20004;SDS011;69160;45.498;-73.582;2023-05-19T03:42:45;1.77;;;1.00;;
20004;SDS011;69160;45.498;-73.582;2023-05-19T03:45:11;1.97;;;1.30;;
20004;SDS011;69160;45.498;-73.582;2023-05-19T03:47:38;1.57;;;1.00;;
20004;SDS011;69160;45.498;-73.582;2023-05-19T03:50:05;1.80;;;1.30;;
20004;SDS011;69160;45.498;-73.582;2023-05-19T03:52:31;1.60;;;1.20;;
20004;SDS011;69160;45.498;-73.582;2023-05-19T03:54:58;1.90;;;1.30;;
20004;SDS011;69160;45.498;-73.582;2023-05-19T03:57:24;2.20;;;1.20;;
20004;SDS011;69160;45.498;-73.582;2023-05-19T03:59:51;1.57;;;1.00;;
20004;SDS011;69160;45.498;-73.582;2023-05-19T04:02:17;3.80;;;1.20;;
20004;SDS011;69160;45.498;-73.582;2023-05-19T04:04:43;2.00;;;1.20;;
20004;SDS011;69160;45.498;-73.582;2023-05-19T04:07:09;1.60;;;1.20;;
20004;SDS011;69160;45.498;-73.582;2023-05-19T04:09:35;1.80;;;1.40;;
20004;SDS011;69160;45.498;-73.582;2023-05-19T04:12:02;1.80;;;1.23;;
20004;SDS011;69160;45.498;-73.582;2023-05-19T04:14:28;1.80;;;1.00;;
20004;SDS011;69160;45.498;-73.582;2023-05-19T04:16:54;1.73;;;1.17;;
20004;SDS011;69160;45.498;-73.582;2023-05-19T04:19:20;3.00;;;1.50;;
20004;SDS011;69160;45.498;-73.582;2023-05-19T04:21:46;4.40;;;1.67;;
20004;SDS011;69160;45.498;-73.582;2023-05-19T04:24:13;1.47;;;1.13;;
20004;SDS011;69160;45.498;-73.582;2023-05-19T04:26:39;1.20;;;1.00;;
20004;SDS011;69160;45.498;-73.582;2023-05-19T04:29:06;1.90;;;0.90;;
20004;SDS011;69160;45.498;-73.582;2023-05-19T04:31:32;1.90;;;1.10;;
20004;SDS011;69160;45.498;-73.582;2023-05-19T04:34:00;1.00;;;0.90;;
20004;SDS011;69160;45.498;-73.582;2023-05-19T04:36:26;1.50;;;1.30;;
20004;SDS011;69160;45.498;-73.582;2023-05-19T04:38:52;1.10;;;1.00;;
20004;SDS011;69160;45.498;-73.582;2023-05-19T04:41:19;2.33;;;1.13;;
20004;SDS011;69160;45.498;-73.582;2023-05-19T04:43:46;3.23;;;1.60;;
20004;SDS011;69160;45.498;-73.582;2023-05-19T04:46:12;1.70;;;1.10;;
20004;SDS011;69160;45.498;-73.582;2023-05-19T04:48:38;2.90;;;1.40;;
20004;SDS011;69160;45.498;-73.582;2023-05-19T04:51:05;1.83;;;0.90;;
20004;SDS011;69160;45.498;-73.582;2023-05-19T04:53:31;1.33;;;1.07;;
20004;SDS011;69160;45.498;-73.582;2023-05-19T04:55:58;2.17;;;1.23;;
20004;SDS011;69160;45.498;-73.582;2023-05-19T04:58:27;2.10;;;1.53;;
20004;SDS011;69160;45.498;-73.582;2023-05-19T05:00:54;1.63;;;1.00;;
20004;SDS011;69160;45.498;-73.582;2023-05-19T05:03:20;1.50;;;0.83;;
20004;SDS011;69160;45.498;-73.582;2023-05-19T05:05:50;2.33;;;1.40;;
20004;SDS011;69160;45.498;-73.582;2023-05-19T05:08:16;1.23;;;1.10;;
20004;SDS011;69160;45.498;-73.582;2023-05-19T05:10:50;1.23;;;0.90;;
20004;SDS011;69160;45.498;-73.582;2023-05-19T05:13:17;1.90;;;1.20;;
20004;SDS011;69160;45.498;-73.582;2023-05-19T05:15:48;1.20;;;1.10;;
20004;SDS011;69160;45.498;-73.582;2023-05-19T05:18:16;1.20;;;0.93;;
20004;SDS011;69160;45.498;-73.582;2023-05-19T05:20:43;1.10;;;1.00;;
20004;SDS011;69160;45.498;-73.582;2023-05-19T05:23:11;2.83;;;1.20;;
20004;SDS011;69160;45.498;-73.582;2023-05-19T05:25:41;2.50;;;1.13;;
20004;SDS011;69160;45.498;-73.582;2023-05-19T05:28:08;1.83;;;1.10;;
20004;SDS011;69160;45.498;-73.582;2023-05-19T05:30:34;1.60;;;1.20;;
20004;SDS011;69160;45.498;-73.582;2023-05-19T05:33:01;2.60;;;1.50;;
20004;SDS011;69160;45.498;-73.582;2023-05-19T05:35:27;2.50;;;1.43;;
20004;SDS011;69160;45.498;-73.582;2023-05-19T05:37:53;1.77;;;1.40;;
20004;SDS011;69160;45.498;-73.582;2023-05-19T05:40:20;1.17;;;1.07;;
20004;SDS011;69160;45.498;-73.582;2023-05-19T05:42:46;2.70;;;1.10;;
20004;SDS011;69160;45.498;-73.582;2023-05-19T05:45:12;1.67;;;1.10;;
20004;SDS011;69160;45.498;-73.582;2023-05-19T05:47:38;1.47;;;1.20;;
20004;SDS011;69160;45.498;-73.582;2023-05-19T05:50:06;1.53;;;1.17;;
20004;SDS011;69160;45.498;-73.582;2023-05-19T05:52:35;1.40;;;1.03;;
20004;SDS011;69160;45.498;-73.582;2023-05-19T05:55:04;2.10;;;1.30;;
20004;SDS011;69160;45.498;-73.582;2023-05-19T05:57:31;3.70;;;1.13;;
20004;SDS011;69160;45.498;-73.582;2023-05-19T05:59:59;1.80;;;1.00;;
20004;SDS011;69160;45.498;-73.582;2023-05-19T06:02:25;1.60;;;1.10;;
20004;SDS011;69160;45.498;-73.582;2023-05-19T06:04:52;1.70;;;1.20;;
20004;SDS011;69160;45.498;-73.582;2023-05-19T06:07:18;1.60;;;1.00;;
20004;SDS011;69160;45.498;-73.582;2023-05-19T06:09:45;1.80;;;1.00;;
20004;SDS011;69160;45.498;-73.582;2023-05-19T06:12:11;1.63;;;1.13;;
20004;SDS011;69160;45.498;-73.582;2023-05-19T06:14:37;2.17;;;1.30;;
20004;SDS011;69160;45.498;-73.582;2023-05-19T06:17:03;4.37;;;1.50;;
20004;SDS011;69160;45.498;-73.582;2023-05-19T06:19:29;2.23;;;1.13;;
20004;SDS011;69160;45.498;-73.582;2023-05-19T06:21:56;2.27;;;1.10;;
20004;SDS011;69160;45.498;-73.582;2023-05-19T06:24:22;1.50;;;1.17;;
20004;SDS011;69160;45.498;-73.582;2023-05-19T06:26:48;2.60;;;1.30;;
20004;SDS011;69160;45.498;-73.582;2023-05-19T06:29:14;2.20;;;1.27;;
20004;SDS011;69160;45.498;-73.582;2023-05-19T06:31:41;2.10;;;1.20;;
20004;SDS011;69160;45.498;-73.582;2023-05-19T06:34:07;1.40;;;1.00;;
20004;SDS011;69160;45.498;-73.582;2023-05-19T06:36:36;2.10;;;1.40;;
20004;SDS011;69160;45.498;-73.582;2023-05-19T06:39:02;1.03;;;0.90;;
20004;SDS011;69160;45.498;-73.582;2023-05-19T06:41:28;1.43;;;1.00;;
20004;SDS011;69160;45.498;-73.582;2023-05-19T06:43:54;2.50;;;1.17;;
20004;SDS011;69160;45.498;-73.582;2023-05-19T06:46:20;2.50;;;1.30;;
20004;SDS011;69160;45.498;-73.582;2023-05-19T06:48:46;1.53;;;0.90;;
20004;SDS011;69160;45.498;-73.582;2023-05-19T06:51:13;2.00;;;1.10;;
20004;SDS011;69160;45.498;-73.582;2023-05-19T06:53:40;1.67;;;1.00;;
20004;SDS011;69160;45.498;-73.582;2023-05-19T06:56:06;1.57;;;1.10;;
20004;SDS011;69160;45.498;-73.582;2023-05-19T06:58:32;1.60;;;1.13;;
20004;SDS011;69160;45.498;-73.582;2023-05-19T07:00:59;1.70;;;1.20;;
20004;SDS011;69160;45.498;-73.582;2023-05-19T07:03:25;4.80;;;1.50;;
20004;SDS011;69160;45.498;-73.582;2023-05-19T07:05:51;0.97;;;0.97;;
20004;SDS011;69160;45.498;-73.582;2023-05-19T07:08:17;1.50;;;1.10;;
20004;SDS011;69160;45.498;-73.582;2023-05-19T07:10:43;1.30;;;1.20;;
20004;SDS011;69160;45.498;-73.582;2023-05-19T07:13:09;1.33;;;0.90;;
20004;SDS011;69160;45.498;-73.582;2023-05-19T07:15:35;2.17;;;1.10;;
20004;SDS011;69160;45.498;-73.582;2023-05-19T07:18:02;1.60;;;1.13;;
20004;SDS011;69160;45.498;-73.582;2023-05-19T07:20:28;1.80;;;1.07;;
20004;SDS011;69160;45.498;-73.582;2023-05-19T07:22:54;1.63;;;1.00;;
20004;SDS011;69160;45.498;-73.582;2023-05-19T07:25:20;2.70;;;1.00;;
20004;SDS011;69160;45.498;-73.582;2023-05-19T07:27:46;2.93;;;1.13;;
20004;SDS011;69160;45.498;-73.582;2023-05-19T07:30:12;1.87;;;1.30;;
20004;SDS011;69160;45.498;-73.582;2023-05-19T07:32:39;2.70;;;1.00;;
20004;SDS011;69160;45.498;-73.582;2023-05-19T07:35:05;2.40;;;0.87;;
20004;SDS011;69160;45.498;-73.582;2023-05-19T07:37:31;1.13;;;0.93;;
20004;SDS011;69160;45.498;-73.582;2023-05-19T07:39:57;1.50;;;1.37;;
20004;SDS011;69160;45.498;-73.582;2023-05-19T07:42:23;2.17;;;0.97;;
20004;SDS011;69160;45.498;-73.582;2023-05-19T07:44:50;2.43;;;1.10;;
20004;SDS011;69160;45.498;-73.582;2023-05-19T07:47:16;1.03;;;0.90;;
20004;SDS011;69160;45.498;-73.582;2023-05-19T07:49:42;1.20;;;0.90;;
20004;SDS011;69160;45.498;-73.582;2023-05-19T07:52:08;1.70;;;1.07;;
20004;SDS011;69160;45.498;-73.582;2023-05-19T07:54:34;1.70;;;0.90;;
20004;SDS011;69160;45.498;-73.582;2023-05-19T07:57:00;2.20;;;1.23;;
20004;SDS011;69160;45.498;-73.582;2023-05-19T07:59:26;1.30;;;0.93;;
20004;SDS011;69160;45.498;-73.582;2023-05-19T08:01:53;1.30;;;1.10;;
20004;SDS011;69160;45.498;-73.582;2023-05-19T08:04:19;1.53;;;1.03;;
20004;SDS011;69160;45.498;-73.582;2023-05-19T08:06:45;1.50;;;1.10;;
20004;SDS011;69160;45.498;-73.582;2023-05-19T08:09:11;1.53;;;0.90;;
20004;SDS011;69160;45.498;-73.582;2023-05-19T08:11:37;1.47;;;1.10;;
20004;SDS011;69160;45.498;-73.582;2023-05-19T08:14:03;1.33;;;0.83;;
20004;SDS011;69160;45.498;-73.582;2023-05-19T08:16:29;1.10;;;0.90;;
20004;SDS011;69160;45.498;-73.582;2023-05-19T08:18:55;1.03;;;0.90;;
20004;SDS011;69160;45.498;-73.582;2023-05-19T08:21:22;1.47;;;1.10;;
20004;SDS011;69160;45.498;-73.582;2023-05-19T08:23:48;1.20;;;1.10;;
20004;SDS011;69160;45.498;-73.582;2023-05-19T08:26:14;3.00;;;1.30;;
20004;SDS011;69160;45.498;-73.582;2023-05-19T08:28:40;1.67;;;1.00;;
20004;SDS011;69160;45.498;-73.582;2023-05-19T08:31:06;3.60;;;1.07;;
20004;SDS011;69160;45.498;-73.582;2023-05-19T08:33:32;1.10;;;1.00;;
20004;SDS011;69160;45.498;-73.582;2023-05-19T08:35:58;2.50;;;1.53;;
20004;SDS011;69160;45.498;-73.582;2023-05-19T08:38:25;1.70;;;1.07;;
20004;SDS011;69160;45.498;-73.582;2023-05-19T08:40:51;1.37;;;0.90;;
20004;SDS011;69160;45.498;-73.582;2023-05-19T08:43:17;1.80;;;1.20;;
20004;SDS011;69160;45.498;-73.582;2023-05-19T08:45:44;1.77;;;1.10;;
20004;SDS011;69160;45.498;-73.582;2023-05-19T08:48:15;3.43;;;1.00;;
20004;SDS011;69160;45.498;-73.582;2023-05-19T08:50:45;1.40;;;1.10;;
20004;SDS011;69160;45.498;-73.582;2023-05-19T08:53:19;1.47;;;1.17;;
20004;SDS011;69160;45.498;-73.582;2023-05-19T08:58:23;1.57;;;1.10;;
20004;SDS011;69160;45.498;-73.582;2023-05-19T09:00:50;1.30;;;1.07;;
20004;SDS011;69160;45.498;-73.582;2023-05-19T09:03:17;2.47;;;1.10;;
20004;SDS011;69160;45.498;-73.582;2023-05-19T09:05:44;2.87;;;1.20;;
20004;SDS011;69160;45.498;-73.582;2023-05-19T09:08:11;1.70;;;1.03;;
20004;SDS011;69160;45.498;-73.582;2023-05-19T09:10:37;1.23;;;1.10;;
20004;SDS011;69160;45.498;-73.582;2023-05-19T09:13:04;1.50;;;1.17;;
20004;SDS011;69160;45.498;-73.582;2023-05-19T09:15:30;1.37;;;0.93;;
20004;SDS011;69160;45.498;-73.582;2023-05-19T09:18:07;3.30;;;1.27;;
20004;SDS011;69160;45.498;-73.582;2023-05-19T09:20:35;1.23;;;0.80;;
20004;SDS011;69160;45.498;-73.582;2023-05-19T09:23:05;0.87;;;0.80;;
20004;SDS011;69160;45.498;-73.582;2023-05-19T09:25:32;1.53;;;1.03;;
20004;SDS011;69160;45.498;-73.582;2023-05-19T09:27:58;1.30;;;1.00;;
20004;SDS011;69160;45.498;-73.582;2023-05-19T09:30:25;1.40;;;1.20;;
20004;SDS011;69160;45.498;-73.582;2023-05-19T09:32:51;2.03;;;1.10;;
20004;SDS011;69160;45.498;-73.582;2023-05-19T09:35:17;2.10;;;1.23;;
20004;SDS011;69160;45.498;-73.582;2023-05-19T09:37:45;1.20;;;1.00;;
20004;SDS011;69160;45.498;-73.582;2023-05-19T09:40:12;3.00;;;1.03;;
20004;SDS011;69160;45.498;-73.582;2023-05-19T09:42:40;1.00;;;1.00;;
20004;SDS011;69160;45.498;-73.582;2023-05-19T09:45:08;1.10;;;1.00;;
20004;SDS011;69160;45.498;-73.582;2023-05-19T09:50:05;1.80;;;1.00;;
20004;SDS011;69160;45.498;-73.582;2023-05-19T09:52:34;1.37;;;0.90;;
20004;SDS011;69160;45.498;-73.582;2023-05-19T09:55:02;1.63;;;1.10;;
20004;SDS011;69160;45.498;-73.582;2023-05-19T09:57:33;2.10;;;1.00;;
20004;SDS011;69160;45.498;-73.582;2023-05-19T10:00:07;3.30;;;0.90;;
20004;SDS011;69160;45.498;-73.582;2023-05-19T10:02:44;1.83;;;1.17;;
20004;SDS011;69160;45.498;-73.582;2023-05-19T10:05:12;1.50;;;1.40;;
20004;SDS011;69160;45.498;-73.582;2023-05-19T10:07:41;3.10;;;1.27;;
20004;SDS011;69160;45.498;-73.582;2023-05-19T10:10:11;3.13;;;1.20;;
20004;SDS011;69160;45.498;-73.582;2023-05-19T10:12:38;1.60;;;1.00;;
20004;SDS011;69160;45.498;-73.582;2023-05-19T10:15:09;2.07;;;1.10;;
20004;SDS011;69160;45.498;-73.582;2023-05-19T10:17:37;2.90;;;1.40;;
20004;SDS011;69160;45.498;-73.582;2023-05-19T10:20:05;3.60;;;1.07;;
20004;SDS011;69160;45.498;-73.582;2023-05-19T10:22:43;1.03;;;0.93;;
20004;SDS011;69160;45.498;-73.582;2023-05-19T10:25:11;2.93;;;0.93;;
20004;SDS011;69160;45.498;-73.582;2023-05-19T10:30:21;1.00;;;0.90;;
20004;SDS011;69160;45.498;-73.582;2023-05-19T10:32:53;1.37;;;0.80;;
20004;SDS011;69160;45.498;-73.582;2023-05-19T10:35:32;2.20;;;1.40;;
20004;SDS011;69160;45.498;-73.582;2023-05-19T10:43:49;1.57;;;1.20;;
20004;SDS011;69160;45.498;-73.582;2023-05-19T10:46:23;1.47;;;1.00;;
20004;SDS011;69160;45.498;-73.582;2023-05-19T10:48:51;1.40;;;1.10;;
20004;SDS011;69160;45.498;-73.582;2023-05-19T10:51:19;2.23;;;1.07;;
20004;SDS011;69160;45.498;-73.582;2023-05-19T10:53:45;3.53;;;1.47;;
20004;SDS011;69160;45.498;-73.582;2023-05-19T10:56:29;1.10;;;1.00;;
20004;SDS011;69160;45.498;-73.582;2023-05-19T10:59:00;1.33;;;1.03;;
20004;SDS011;69160;45.498;-73.582;2023-05-19T11:01:31;1.33;;;1.03;;
20004;SDS011;69160;45.498;-73.582;2023-05-19T11:04:05;1.93;;;1.00;;
20004;SDS011;69160;45.498;-73.582;2023-05-19T11:06:35;1.40;;;1.10;;
20004;SDS011;69160;45.498;-73.582;2023-05-19T11:09:09;1.47;;;1.07;;
20004;SDS011;69160;45.498;-73.582;2023-05-19T11:11:46;2.70;;;1.10;;
20004;SDS011;69160;45.498;-73.582;2023-05-19T11:14:17;2.70;;;1.10;;
20004;SDS011;69160;45.498;-73.582;2023-05-19T11:16:51;1.20;;;0.83;;
20004;SDS011;69160;45.498;-73.582;2023-05-19T11:19:26;2.37;;;1.10;;
20004;SDS011;69160;45.498;-73.582;2023-05-19T11:21:54;1.10;;;0.90;;
20004;SDS011;69160;45.498;-73.582;2023-05-19T11:32:33;1.97;;;1.30;;
20004;SDS011;69160;45.498;-73.582;2023-05-19T11:35:03;1.60;;;1.20;;
20004;SDS011;69160;45.498;-73.582;2023-05-19T11:37:32;1.27;;;0.97;;
20004;SDS011;69160;45.498;-73.582;2023-05-19T11:40:05;1.10;;;1.00;;
20004;SDS011;69160;45.498;-73.582;2023-05-19T11:42:32;12.53;;;1.50;;
20004;SDS011;69160;45.498;-73.582;2023-05-19T11:45:01;3.57;;;1.00;;
20004;SDS011;69160;45.498;-73.582;2023-05-19T11:47:29;4.10;;;1.30;;
20004;SDS011;69160;45.498;-73.582;2023-05-19T11:49:59;10.57;;;1.67;;
20004;SDS011;69160;45.498;-73.582;2023-05-19T11:52:25;4.93;;;1.40;;
20004;SDS011;69160;45.498;-73.582;2023-05-19T11:54:51;2.60;;;1.27;;
20004;SDS011;69160;45.498;-73.582;2023-05-19T11:57:18;3.97;;;1.50;;
20004;SDS011;69160;45.498;-73.582;2023-05-19T11:59:45;3.73;;;1.20;;
20004;SDS011;69160;45.498;-73.582;2023-05-19T12:02:20;5.90;;;1.30;;
20004;SDS011;69160;45.498;-73.582;2023-05-19T12:04:49;8.80;;;1.20;;
20004;SDS011;69160;45.498;-73.582;2023-05-19T12:07:18;7.50;;;1.20;;
20004;SDS011;69160;45.498;-73.582;2023-05-19T12:09:47;5.40;;;1.63;;
20004;SDS011;69160;45.498;-73.582;2023-05-19T12:12:18;18.20;;;2.20;;
20004;SDS011;69160;45.498;-73.582;2023-05-19T12:14:45;20.63;;;2.47;;
20004;SDS011;69160;45.498;-73.582;2023-05-19T12:17:13;13.53;;;2.40;;
20004;SDS011;69160;45.498;-73.582;2023-05-19T12:19:48;11.77;;;1.80;;
20004;SDS011;69160;45.498;-73.582;2023-05-19T12:22:15;7.77;;;1.83;;
20004;SDS011;69160;45.498;-73.582;2023-05-19T12:24:42;11.20;;;2.07;;
20004;SDS011;69160;45.498;-73.582;2023-05-19T12:27:09;14.83;;;2.10;;
20004;SDS011;69160;45.498;-73.582;2023-05-19T12:29:47;16.10;;;4.17;;
20004;SDS011;69160;45.498;-73.582;2023-05-19T12:32:17;27.50;;;5.73;;
20004;SDS011;69160;45.498;-73.582;2023-05-19T12:34:48;24.73;;;4.40;;
20004;SDS011;69160;45.498;-73.582;2023-05-19T12:37:15;18.43;;;5.63;;
20004;SDS011;69160;45.498;-73.582;2023-05-19T12:39:41;21.00;;;4.60;;
20004;SDS011;69160;45.498;-73.582;2023-05-19T12:42:09;15.97;;;4.53;;
20004;SDS011;69160;45.498;-73.582;2023-05-19T12:44:43;18.43;;;4.50;;
20004;SDS011;69160;45.498;-73.582;2023-05-19T12:47:14;19.17;;;4.20;;
20004;SDS011;69160;45.498;-73.582;2023-05-19T12:52:28;10.83;;;3.57;;
20004;SDS011;69160;45.498;-73.582;2023-05-19T12:57:29;14.53;;;3.90;;
20004;SDS011;69160;45.498;-73.582;2023-05-19T13:02:59;18.00;;;3.40;;
20004;SDS011;69160;45.498;-73.582;2023-05-19T13:05:26;16.50;;;3.47;;
20004;SDS011;69160;45.498;-73.582;2023-05-19T13:07:56;12.23;;;2.90;;
20004;SDS011;69160;45.498;-73.582;2023-05-19T13:10:29;17.43;;;2.97;;
20004;SDS011;69160;45.498;-73.582;2023-05-19T13:12:57;21.20;;;3.10;;
20004;SDS011;69160;45.498;-73.582;2023-05-19T13:15:25;13.00;;;3.27;;
20004;SDS011;69160;45.498;-73.582;2023-05-19T13:17:52;21.50;;;3.70;;
20004;SDS011;69160;45.498;-73.582;2023-05-19T13:20:19;13.97;;;2.90;;
20004;SDS011;69160;45.498;-73.582;2023-05-19T13:22:46;14.07;;;2.50;;
20004;SDS011;69160;45.498;-73.582;2023-05-19T13:25:12;11.20;;;2.73;;
20004;SDS011;69160;45.498;-73.582;2023-05-19T13:27:39;9.20;;;2.73;;
20004;SDS011;69160;45.498;-73.582;2023-05-19T13:30:05;9.80;;;3.00;;
20004;SDS011;69160;45.498;-73.582;2023-05-19T13:32:32;12.63;;;2.93;;
20004;SDS011;69160;45.498;-73.582;2023-05-19T13:34:58;6.30;;;2.60;;
20004;SDS011;69160;45.498;-73.582;2023-05-19T13:37:25;9.17;;;2.50;;
20004;SDS011;69160;45.498;-73.582;2023-05-19T13:39:52;8.83;;;2.20;;
20004;SDS011;69160;45.498;-73.582;2023-05-19T13:42:19;17.27;;;2.73;;
20004;SDS011;69160;45.498;-73.582;2023-05-19T13:44:45;8.93;;;2.60;;
20004;SDS011;69160;45.498;-73.582;2023-05-19T13:47:11;7.13;;;2.00;;
20004;SDS011;69160;45.498;-73.582;2023-05-19T13:49:38;12.10;;;2.77;;
20004;SDS011;69160;45.498;-73.582;2023-05-19T13:52:05;6.20;;;2.23;;
20004;SDS011;69160;45.498;-73.582;2023-05-19T13:54:32;6.30;;;2.30;;
20004;SDS011;69160;45.498;-73.582;2023-05-19T13:56:58;4.50;;;1.73;;
20004;SDS011;69160;45.498;-73.582;2023-05-19T13:59:25;6.40;;;2.33;;
20004;SDS011;69160;45.498;-73.582;2023-05-19T14:01:51;8.50;;;2.03;;
20004;SDS011;69160;45.498;-73.582;2023-05-19T14:04:17;5.50;;;1.93;;
20004;SDS011;69160;45.498;-73.582;2023-05-19T14:06:44;4.13;;;2.00;;
20004;SDS011;69160;45.498;-73.582;2023-05-19T14:09:11;5.07;;;1.90;;
20004;SDS011;69160;45.498;-73.582;2023-05-19T14:11:37;5.27;;;2.10;;
20004;SDS011;69160;45.498;-73.582;2023-05-19T14:14:03;5.37;;;1.90;;
20004;SDS011;69160;45.498;-73.582;2023-05-19T14:16:29;6.50;;;1.93;;
20004;SDS011;69160;45.498;-73.582;2023-05-19T14:18:56;3.93;;;1.70;;
20004;SDS011;69160;45.498;-73.582;2023-05-19T14:21:22;9.27;;;2.00;;
20004;SDS011;69160;45.498;-73.582;2023-05-19T14:23:48;4.10;;;2.07;;
20004;SDS011;69160;45.498;-73.582;2023-05-19T14:26:15;6.90;;;2.23;;
20004;SDS011;69160;45.498;-73.582;2023-05-19T14:28:41;5.20;;;1.87;;
20004;SDS011;69160;45.498;-73.582;2023-05-19T14:31:10;4.10;;;1.80;;
20004;SDS011;69160;45.498;-73.582;2023-05-19T14:33:37;3.00;;;2.00;;
20004;SDS011;69160;45.498;-73.582;2023-05-19T14:36:04;7.40;;;1.97;;
20004;SDS011;69160;45.498;-73.582;2023-05-19T14:38:30;3.00;;;1.53;;
20004;SDS011;69160;45.498;-73.582;2023-05-19T14:40:56;3.13;;;1.77;;
20004;SDS011;69160;45.498;-73.582;2023-05-19T14:43:23;4.40;;;1.33;;
20004;SDS011;69160;45.498;-73.582;2023-05-19T14:45:49;3.37;;;1.80;;
20004;SDS011;69160;45.498;-73.582;2023-05-19T14:48:15;3.00;;;1.90;;
20004;SDS011;69160;45.498;-73.582;2023-05-19T14:50:42;2.77;;;1.63;;
20004;SDS011;69160;45.498;-73.582;2023-05-19T14:53:09;3.63;;;1.87;;
20004;SDS011;69160;45.498;-73.582;2023-05-19T14:55:35;3.77;;;1.77;;
20004;SDS011;69160;45.498;-73.582;2023-05-19T14:58:01;3.33;;;1.67;;
20004;SDS011;69160;45.498;-73.582;2023-05-19T15:00:27;2.40;;;1.50;;
20004;SDS011;69160;45.498;-73.582;2023-05-19T15:02:54;3.23;;;1.60;;
20004;SDS011;69160;45.498;-73.582;2023-05-19T15:05:20;2.87;;;1.67;;
20004;SDS011;69160;45.498;-73.582;2023-05-19T15:07:49;4.50;;;1.83;;
20004;SDS011;69160;45.498;-73.582;2023-05-19T15:10:16;3.30;;;1.53;;
20004;SDS011;69160;45.498;-73.582;2023-05-19T15:12:46;2.40;;;1.30;;